createdAt,value
2022-10-02T00:01:49.796Z,11.80
2022-10-02T00:04:28.590Z,7.90
2022-10-02T00:07:05.125Z,6.00
2022-10-02T00:09:42.598Z,7.50
2022-10-02T00:12:18.102Z,8.90
2022-10-02T00:14:52.452Z,7.10
2022-10-02T00:17:27.521Z,5.90
2022-10-02T00:19:59.604Z,8.70
2022-10-02T00:22:40.754Z,8.80
2022-10-02T00:25:19.113Z,6.80
2022-10-02T00:28:15.999Z,6.00
2022-10-02T00:31:02.381Z,5.30
2022-10-02T00:33:41.331Z,11.10
2022-10-02T00:36:24.177Z,11.90
2022-10-02T00:39:01.383Z,9.60
2022-10-02T00:42:04.289Z,7.10
2022-10-02T00:44:47.394Z,6.30
2022-10-02T00:47:28.260Z,11.70
2022-10-02T00:50:15.974Z,5.30
2022-10-02T00:52:55.430Z,13.40
2022-10-02T00:55:42.216Z,8.90
2022-10-02T00:58:35.411Z,7.40
2022-10-02T01:01:12.089Z,6.40
2022-10-02T01:03:45.739Z,7.50
2022-10-02T01:06:18.040Z,8.00
2022-10-02T01:08:50.105Z,9.50
2022-10-02T01:11:22.945Z,11.90
2022-10-02T01:13:55.054Z,8.80
2022-10-02T01:16:27.238Z,9.00
2022-10-02T01:18:59.594Z,5.30
2022-10-02T01:21:37.689Z,6.80
2022-10-02T01:24:14.488Z,10.10
2022-10-02T01:26:49.078Z,10.10
2022-10-02T01:29:21.165Z,6.90
2022-10-02T01:31:53.489Z,15.90
2022-10-02T01:34:25.742Z,8.30
2022-10-02T01:36:57.856Z,6.80
2022-10-02T01:39:30.357Z,8.40
2022-10-02T01:44:32.997Z,11.20
2022-10-02T01:47:09.257Z,7.60
2022-10-02T01:49:53.183Z,8.30
2022-10-02T01:52:48.296Z,5.60
2022-10-02T01:55:32.773Z,10.20
2022-10-02T01:58:17.716Z,9.30
2022-10-02T02:00:57.813Z,10.40
2022-10-02T02:03:38.574Z,9.30
2022-10-02T02:06:16.874Z,7.50
2022-10-02T02:08:51.609Z,10.00
2022-10-02T02:11:24.428Z,11.90
2022-10-02T02:14:00.569Z,8.80
2022-10-02T02:16:37.300Z,13.00
2022-10-02T02:19:13.585Z,8.10
2022-10-02T02:21:50.728Z,11.10
2022-10-02T02:24:26.237Z,8.80
2022-10-02T02:27:02.169Z,12.40
2022-10-02T02:29:36.945Z,7.00
2022-10-02T02:32:11.582Z,8.50
2022-10-02T02:34:47.399Z,9.40
2022-10-02T02:37:21.661Z,9.10
2022-10-02T02:39:57.369Z,10.40
2022-10-02T02:42:32.993Z,9.20
2022-10-02T02:45:08.818Z,8.80
2022-10-02T02:47:43.505Z,8.00
2022-10-02T02:50:19.476Z,9.30
2022-10-02T02:52:56.783Z,7.40
2022-10-02T02:55:32.676Z,11.00
2022-10-02T02:58:09.238Z,11.10
2022-10-02T03:00:41.752Z,7.70
2022-10-02T03:03:13.990Z,9.60
2022-10-02T03:05:49.334Z,8.60
2022-10-02T03:08:26.367Z,11.50
2022-10-02T03:11:08.196Z,7.80
2022-10-02T03:13:55.759Z,7.90
2022-10-02T03:16:38.526Z,6.20
2022-10-02T03:19:21.852Z,10.40
2022-10-02T03:22:02.788Z,7.30
2022-10-02T03:24:40.222Z,7.40
2022-10-02T03:27:15.353Z,7.30
2022-10-02T03:29:51.436Z,5.90
2022-10-02T03:32:24.216Z,5.80
2022-10-02T03:34:57.339Z,7.30
2022-10-02T03:37:30.701Z,6.50
2022-10-02T03:40:04.445Z,9.10
2022-10-02T03:42:37.984Z,9.70
2022-10-02T03:45:23.094Z,8.70
2022-10-02T03:48:03.840Z,6.10
2022-10-02T03:50:36.662Z,7.20
2022-10-02T03:53:15.535Z,6.70
2022-10-02T03:55:49.968Z,8.70
2022-10-02T03:58:22.207Z,11.30
2022-10-02T04:00:59.595Z,7.10
2022-10-02T04:03:35.053Z,6.00
2022-10-02T04:06:11.146Z,6.30
2022-10-02T04:08:46.929Z,5.20
2022-10-02T04:11:22.712Z,6.30
2022-10-02T04:13:59.023Z,8.40
2022-10-02T04:16:35.159Z,5.80
2022-10-02T04:19:13.082Z,7.90
2022-10-02T04:21:47.977Z,4.20
2022-10-02T04:24:27.559Z,6.80
2022-10-02T04:27:05.076Z,4.80
2022-10-02T04:29:40.593Z,5.40
2022-10-02T04:32:16.666Z,8.80
2022-10-02T04:34:48.887Z,6.70
2022-10-02T04:37:43.464Z,7.30
2022-10-02T04:40:31.619Z,4.80
2022-10-02T04:43:12.369Z,7.80
2022-10-02T04:45:55.358Z,5.80
2022-10-02T04:48:52.413Z,6.10
2022-10-02T04:51:32.942Z,7.60
2022-10-02T04:54:21.348Z,6.50
2022-10-02T04:57:07.039Z,6.10
2022-10-02T04:59:49.328Z,5.80
2022-10-02T05:02:34.877Z,4.80
2022-10-02T05:05:30.050Z,6.30
2022-10-02T05:08:30.256Z,6.20
2022-10-02T05:11:20.064Z,6.30
2022-10-02T05:14:16.787Z,6.00
2022-10-02T05:17:06.540Z,8.60
2022-10-02T05:20:03.713Z,8.40
2022-10-02T05:22:53.444Z,4.60
2022-10-02T05:25:42.393Z,4.70
2022-10-02T05:28:25.763Z,8.90
2022-10-02T05:31:14.469Z,5.40
2022-10-02T05:34:01.397Z,6.20
2022-10-02T05:36:45.834Z,6.80
2022-10-02T05:39:21.681Z,6.10
2022-10-02T05:41:59.389Z,4.60
2022-10-02T05:44:37.769Z,8.90
2022-10-02T05:47:16.139Z,6.70
2022-10-02T05:49:52.399Z,5.50
2022-10-02T05:52:27.531Z,3.70
2022-10-02T05:55:01.428Z,10.80
2022-10-02T05:57:36.731Z,6.60
2022-10-02T06:00:22.144Z,7.50
2022-10-02T06:02:58.239Z,5.00
2022-10-02T06:05:35.860Z,9.20
2022-10-02T06:08:13.159Z,5.60
2022-10-02T06:10:52.286Z,4.70
2022-10-02T06:14:04.988Z,4.40
2022-10-02T06:16:41.107Z,5.40
2022-10-02T06:20:03.286Z,6.60
2022-10-02T06:39:48.901Z,5.80
2022-10-02T06:42:33.958Z,7.00
2022-10-02T06:45:11.162Z,8.60
2022-10-02T06:47:57.784Z,7.20
2022-10-02T06:50:52.124Z,5.50
2022-10-02T06:53:37.694Z,6.40
2022-10-02T06:56:23.763Z,7.20
2022-10-02T06:59:04.908Z,4.10
2022-10-02T07:01:50.295Z,5.50
2022-10-02T07:04:35.650Z,5.90
2022-10-02T07:10:00.989Z,3.40
2022-10-02T07:12:55.112Z,3.50
2022-10-02T07:15:46.816Z,8.80
2022-10-02T07:18:27.771Z,3.20
2022-10-02T07:21:08.967Z,4.40
2022-10-02T07:23:52.074Z,2.10
2022-10-02T07:26:43.900Z,5.40
2022-10-02T07:29:33.859Z,6.10
2022-10-02T07:32:31.094Z,2.90
2022-10-02T07:35:08.580Z,4.10
2022-10-02T07:37:49.215Z,3.10
2022-10-02T07:40:30.221Z,1.90
2022-10-02T07:43:15.620Z,1.90
2022-10-02T07:45:52.908Z,3.70
2022-10-02T07:48:36.534Z,2.70
2022-10-02T07:51:52.577Z,2.60
2022-10-02T07:55:03.297Z,2.90
2022-10-02T07:57:42.347Z,3.20
2022-10-02T08:00:17.985Z,3.00
2022-10-02T08:02:56.695Z,3.50
2022-10-02T08:05:32.184Z,3.30
2022-10-02T08:08:10.098Z,1.40
2022-10-02T08:10:45.193Z,2.30
2022-10-02T08:13:21.264Z,5.70
2022-10-02T08:15:56.973Z,1.90
2022-10-02T08:18:35.805Z,3.10
2022-10-02T08:21:14.126Z,1.90
2022-10-02T08:23:49.769Z,3.20
2022-10-02T08:26:27.659Z,1.70
2022-10-02T08:29:05.972Z,2.60
2022-10-02T08:31:38.376Z,3.50
2022-10-02T08:34:18.074Z,2.80
2022-10-02T08:37:31.907Z,7.70
2022-10-02T08:40:30.335Z,2.80
2022-10-02T08:43:33.191Z,1.00
2022-10-02T08:46:21.548Z,0.80
2022-10-02T08:49:18.856Z,2.70
2022-10-02T08:52:16.672Z,6.40
2022-10-02T08:55:12.184Z,0.90
2022-10-02T08:58:11.323Z,1.20
2022-10-02T09:00:55.838Z,1.30
2022-10-02T09:03:52.463Z,0.80
2022-10-02T09:06:51.145Z,2.30
2022-10-02T09:09:57.605Z,1.20
2022-10-02T09:13:05.464Z,0.70
2022-10-02T09:15:47.275Z,0.70
2022-10-02T09:18:24.176Z,0.70
2022-10-02T09:21:11.962Z,1.50
2022-10-02T09:24:18.167Z,2.20
2022-10-02T09:27:32.885Z,1.60
2022-10-02T09:30:18.586Z,0.80
2022-10-02T09:33:17.217Z,2.90
2022-10-02T09:36:12.742Z,3.10
2022-10-02T09:39:20.297Z,2.00
2022-10-02T09:42:22.195Z,1.60
2022-10-02T09:45:37.710Z,0.90
2022-10-02T09:48:52.937Z,2.50
2022-10-02T09:51:52.977Z,3.00
2022-10-02T09:55:06.997Z,1.00
2022-10-02T09:58:09.678Z,0.50
2022-10-02T10:03:54.803Z,1.70
2022-10-02T10:06:41.267Z,1.40
2022-10-02T10:09:35.442Z,3.10
2022-10-02T10:12:31.173Z,1.40
2022-10-02T10:15:29.885Z,0.40
2022-10-02T10:18:28.049Z,0.60
2022-10-02T10:21:54.296Z,1.70
2022-10-02T10:24:55.983Z,2.40
2022-10-02T10:27:49.198Z,3.40
2022-10-02T10:30:48.489Z,1.40
2022-10-02T10:33:43.381Z,2.80
2022-10-02T10:36:46.924Z,2.50
2022-10-02T10:39:36.764Z,2.00
2022-10-02T10:43:02.997Z,1.00
2022-10-02T10:45:51.169Z,2.20
2022-10-02T10:48:52.310Z,3.90
2022-10-02T10:51:34.025Z,2.00
2022-10-02T10:54:27.653Z,1.40
2022-10-02T10:57:04.680Z,2.60
2022-10-02T11:00:03.476Z,2.70
2022-10-02T11:03:08.249Z,1.80
2022-10-02T11:06:22.370Z,1.40
2022-10-02T11:09:18.412Z,1.00
2022-10-02T11:12:22.081Z,2.00
2022-10-02T11:15:07.731Z,0.90
2022-10-02T11:17:57.959Z,0.40
2022-10-02T11:20:48.765Z,1.70
2022-10-02T11:23:59.772Z,1.70
2022-10-02T11:26:42.733Z,1.50
2022-10-02T11:29:47.953Z,1.90
2022-10-02T11:32:34.166Z,1.10
2022-10-02T11:35:26.634Z,0.90
2022-10-02T11:38:27.263Z,1.90
2022-10-02T11:41:29.383Z,1.60
2022-10-02T11:44:10.090Z,0.70
2022-10-02T11:47:28.949Z,1.20
2022-10-02T11:50:29.250Z,1.10
2022-10-02T11:53:23.013Z,0.80
2022-10-02T11:56:11.912Z,1.10
2022-10-02T11:58:54.426Z,0.70
2022-10-02T12:04:21.386Z,0.50
2022-10-02T12:07:05.281Z,0.60
2022-10-02T12:09:45.178Z,3.70
2022-10-02T12:12:30.088Z,0.80
2022-10-02T12:15:07.701Z,1.00
2022-10-02T12:17:56.376Z,0.50
2022-10-02T12:20:58.121Z,2.50
2022-10-02T12:23:55.954Z,2.20
2022-10-02T12:26:55.924Z,1.40
2022-10-02T12:29:40.585Z,1.80
2022-10-02T12:32:23.301Z,2.10
2022-10-02T12:35:05.424Z,1.60
2022-10-02T12:40:18.957Z,1.20
2022-10-02T12:43:13.582Z,1.00
2022-10-02T12:46:04.689Z,1.00
2022-10-02T12:48:54.150Z,0.40
2022-10-02T12:51:40.411Z,0.40
2022-10-02T12:55:04.271Z,1.50
2022-10-02T12:57:53.227Z,2.30
2022-10-02T13:00:27.167Z,1.30
2022-10-02T13:03:28.788Z,0.80
2022-10-02T13:06:42.565Z,0.80
2022-10-02T13:09:31.550Z,1.70
2022-10-02T13:12:13.209Z,0.50
2022-10-02T13:15:17.556Z,1.30
2022-10-02T13:17:56.102Z,0.70
2022-10-02T13:20:39.199Z,0.50
2022-10-02T13:23:20.361Z,0.80
2022-10-02T13:26:00.158Z,0.40
2022-10-02T13:28:50.302Z,1.40
2022-10-02T13:31:37.159Z,1.00
2022-10-02T13:34:38.379Z,1.70
2022-10-02T13:37:20.466Z,0.60
2022-10-02T13:40:13.154Z,2.70
2022-10-02T13:42:54.760Z,1.20
2022-10-02T13:45:32.834Z,1.30
2022-10-02T13:48:11.788Z,3.00
2022-10-02T13:50:53.009Z,5.30
2022-10-02T13:53:43.024Z,1.90
2022-10-02T13:56:26.613Z,0.40
2022-10-02T13:59:12.875Z,2.80
2022-10-02T14:01:54.026Z,2.60
2022-10-02T14:04:36.537Z,0.40
2022-10-02T14:07:18.648Z,0.50
2022-10-02T14:09:58.978Z,0.50
2022-10-02T14:12:38.549Z,1.60
2022-10-02T14:15:35.323Z,3.90
2022-10-02T14:18:26.837Z,4.50
2022-10-02T14:21:06.055Z,4.90
2022-10-02T14:24:02.744Z,2.80
2022-10-02T14:26:46.653Z,4.20
2022-10-02T14:29:46.232Z,2.00
2022-10-02T14:32:38.120Z,3.40
2022-10-02T14:35:32.946Z,1.30
2022-10-02T14:38:27.606Z,5.10
2022-10-02T14:41:01.939Z,0.30
2022-10-02T14:43:54.770Z,2.20
2022-10-02T14:46:36.209Z,1.50
2022-10-02T14:49:29.144Z,2.10
2022-10-02T14:52:16.144Z,2.40
2022-10-02T14:55:14.138Z,3.90
2022-10-02T14:58:02.271Z,3.10
2022-10-02T15:00:40.706Z,1.30
2022-10-02T15:03:33.618Z,2.20
2022-10-02T15:06:26.094Z,6.10
2022-10-02T15:09:04.904Z,1.60
2022-10-02T15:11:57.302Z,4.50
2022-10-02T15:14:35.078Z,2.40
2022-10-02T15:17:28.297Z,0.60
2022-10-02T15:20:08.118Z,2.60
2022-10-02T15:22:46.694Z,1.20
2022-10-02T15:25:26.665Z,2.10
2022-10-02T15:28:31.188Z,2.40
2022-10-02T15:31:04.805Z,1.40
2022-10-02T15:33:40.861Z,1.30
2022-10-02T15:36:37.073Z,1.60
2022-10-02T15:39:23.344Z,0.90
2022-10-02T15:42:06.943Z,1.90
2022-10-02T15:45:02.151Z,2.10
2022-10-02T15:47:45.551Z,2.50
2022-10-02T15:50:25.194Z,1.60
2022-10-02T15:53:06.987Z,1.20
2022-10-02T15:55:44.161Z,1.20
2022-10-02T15:58:28.109Z,1.10
2022-10-02T16:01:29.627Z,1.00
2022-10-02T16:04:08.944Z,2.60
2022-10-02T16:07:08.717Z,1.80
2022-10-02T16:09:50.956Z,1.50
2022-10-02T16:12:34.862Z,4.20
2022-10-02T16:15:17.484Z,5.60
2022-10-02T16:20:43.968Z,9.90
2022-10-02T16:23:33.424Z,1.20
2022-10-02T16:26:15.854Z,2.30
2022-10-02T16:28:54.728Z,1.50
2022-10-02T16:31:43.706Z,1.70
2022-10-02T16:34:24.397Z,2.50
2022-10-02T16:37:00.376Z,2.20
2022-10-02T16:39:45.538Z,2.90
2022-10-02T16:42:36.110Z,3.90
2022-10-02T16:45:27.636Z,2.80
2022-10-02T16:48:07.895Z,3.90
2022-10-02T16:51:00.808Z,5.40
2022-10-02T16:53:36.121Z,7.60
2022-10-02T16:56:15.397Z,4.40
2022-10-02T16:58:52.680Z,5.70
2022-10-02T17:01:32.290Z,3.50
2022-10-02T17:04:22.477Z,3.50
2022-10-02T17:06:59.351Z,4.70
2022-10-02T17:09:40.151Z,4.10
2022-10-02T17:12:21.205Z,3.10
2022-10-02T17:14:58.204Z,2.20
2022-10-02T17:17:46.245Z,1.60
2022-10-02T17:20:21.943Z,2.40
2022-10-02T17:23:00.005Z,5.50
2022-10-02T17:25:35.545Z,2.60
2022-10-02T17:28:11.366Z,2.70
2022-10-02T17:31:16.782Z,2.30
2022-10-02T17:33:55.896Z,1.90
2022-10-02T17:36:35.134Z,3.50
2022-10-02T17:39:19.253Z,2.30
2022-10-02T17:41:57.286Z,1.60
2022-10-02T17:44:44.987Z,1.50
2022-10-02T17:47:42.057Z,3.00
2022-10-02T17:50:46.462Z,1.40
2022-10-02T17:54:00.180Z,2.00
2022-10-02T17:56:52.057Z,2.20
2022-10-02T17:59:45.641Z,4.80
2022-10-02T18:02:30.086Z,2.50
2022-10-02T18:05:19.269Z,1.50
2022-10-02T18:08:04.551Z,2.90
2022-10-02T18:10:42.729Z,2.30
2022-10-02T18:13:27.596Z,3.70
2022-10-02T18:16:25.170Z,2.20
2022-10-02T18:19:16.831Z,3.80
2022-10-02T18:21:56.509Z,2.60
2022-10-02T18:24:39.741Z,1.80
2022-10-02T18:27:26.357Z,6.00
2022-10-02T18:30:11.987Z,6.30
2022-10-02T18:33:25.418Z,2.40
2022-10-02T18:36:13.285Z,3.20
2022-10-02T18:38:54.834Z,2.20
2022-10-02T18:44:12.696Z,4.00
2022-10-02T18:46:51.936Z,3.60
2022-10-02T18:49:37.692Z,4.20
2022-10-02T18:52:22.770Z,7.60
2022-10-02T18:55:04.270Z,3.30
2022-10-02T18:57:46.811Z,3.70
2022-10-02T19:00:22.940Z,3.60
2022-10-02T19:03:21.164Z,2.20
2022-10-02T19:05:56.788Z,5.00
2022-10-02T19:08:32.781Z,4.00
2022-10-02T19:11:04.931Z,4.00
2022-10-02T19:13:41.777Z,3.90
2022-10-02T19:16:24.716Z,6.50
2022-10-02T19:19:12.221Z,3.30
2022-10-02T19:21:44.364Z,6.50
2022-10-02T19:24:19.122Z,5.30
2022-10-02T19:26:54.675Z,9.10
2022-10-02T19:29:32.544Z,5.50
2022-10-02T19:32:13.244Z,6.50
2022-10-02T19:34:45.912Z,3.70
2022-10-02T19:37:23.119Z,5.80
2022-10-02T19:39:56.860Z,4.10
2022-10-02T19:42:30.451Z,4.40
2022-10-02T19:45:05.112Z,3.90
2022-10-02T19:47:42.527Z,4.20
2022-10-02T19:50:24.529Z,4.30
2022-10-02T19:52:59.141Z,4.10
2022-10-02T19:55:35.313Z,3.90
2022-10-02T19:58:14.269Z,4.30
2022-10-02T20:00:47.673Z,2.50
2022-10-02T20:03:21.426Z,3.80
2022-10-02T20:05:55.405Z,2.50
2022-10-02T20:08:31.612Z,4.90
2022-10-02T20:11:07.116Z,3.20
2022-10-02T20:13:42.189Z,2.90
2022-10-02T20:16:38.654Z,2.50
2022-10-02T20:19:13.625Z,2.00
2022-10-02T20:21:48.228Z,5.20
2022-10-02T20:24:24.012Z,2.90
2022-10-02T20:27:01.099Z,2.30
2022-10-02T20:29:37.980Z,2.70
2022-10-02T20:32:15.269Z,4.10
2022-10-02T20:34:53.563Z,4.70
2022-10-02T20:37:29.481Z,3.90
2022-10-02T20:40:05.143Z,2.50
2022-10-02T20:42:42.455Z,2.00
2022-10-02T20:45:16.204Z,5.10
2022-10-02T20:48:43.713Z,4.70
2022-10-02T20:51:30.184Z,4.30
2022-10-02T20:54:36.051Z,6.10
2022-10-02T20:58:02.055Z,3.30
2022-10-02T21:00:43.819Z,2.00
2022-10-02T21:03:46.881Z,2.10
2022-10-02T21:09:21.109Z,3.00
2022-10-02T21:12:18.438Z,3.00
2022-10-02T21:15:23.295Z,2.60
2022-10-02T21:18:17.025Z,2.90
2022-10-02T21:21:19.272Z,1.20
2022-10-02T21:24:04.941Z,3.30
2022-10-02T21:26:52.944Z,2.70
2022-10-02T21:29:43.031Z,2.70
2022-10-02T21:32:42.368Z,6.20
2022-10-02T21:35:34.268Z,2.40
2022-10-02T21:38:31.143Z,1.90
2022-10-02T21:41:38.518Z,2.30
2022-10-02T21:44:38.839Z,2.00
2022-10-02T21:47:29.013Z,2.10
2022-10-02T21:50:37.980Z,4.00
2022-10-02T21:53:39.392Z,3.00
2022-10-02T22:00:13.874Z,4.90
2022-10-02T22:03:31.356Z,1.60
2022-10-02T22:06:15.212Z,1.80
2022-10-02T22:09:14.137Z,2.40
2022-10-02T22:11:57.556Z,3.90
2022-10-02T22:14:34.821Z,2.60
2022-10-02T22:17:13.746Z,4.40
2022-10-02T22:20:05.045Z,1.80
2022-10-02T22:22:52.394Z,4.00
2022-10-02T22:25:37.233Z,2.70
2022-10-02T22:28:20.246Z,5.20
2022-10-02T22:31:12.694Z,2.00
2022-10-02T22:33:55.866Z,2.60
2022-10-02T22:36:57.015Z,3.90
2022-10-02T22:39:32.406Z,3.40
2022-10-02T22:42:11.769Z,5.20
2022-10-02T22:44:47.751Z,3.10
2022-10-02T22:47:28.828Z,2.10
2022-10-02T22:50:05.599Z,3.50
2022-10-02T22:52:48.559Z,4.40
2022-10-02T22:55:23.020Z,7.10
2022-10-02T22:58:00.763Z,2.90
2022-10-02T23:00:37.430Z,2.20
2022-10-02T23:03:16.332Z,3.40
2022-10-02T23:05:54.425Z,3.70
2022-10-02T23:08:32.490Z,3.40
2022-10-02T23:11:10.793Z,2.40
2022-10-02T23:13:47.940Z,4.10
2022-10-02T23:16:26.738Z,10.30
2022-10-02T23:19:03.494Z,3.70
2022-10-02T23:21:45.898Z,2.20
2022-10-02T23:24:31.995Z,2.20
2022-10-02T23:27:13.787Z,3.30
2022-10-02T23:29:53.904Z,2.90
2022-10-02T23:32:32.892Z,2.00
2022-10-02T23:35:12.366Z,2.60
2022-10-02T23:37:51.442Z,2.10
2022-10-02T23:40:42.847Z,2.90
2022-10-02T23:43:18.439Z,2.10
2022-10-02T23:45:56.031Z,2.40
2022-10-02T23:48:29.729Z,2.30
2022-10-02T23:51:10.379Z,3.40
2022-10-02T23:54:01.593Z,3.40
2022-10-02T23:56:51.901Z,2.40
2022-10-02T23:59:40.858Z,2.60
